sensor_id;sensor_type;location;lat;lon;timestamp;P1;durP1;ratioP1;P2;durP2;ratioP2
19221;SDS011;9745;50.828;4.378;2023-09-12T00:02:00;36.27;;;22.80;;
19221;SDS011;9745;50.828;4.378;2023-09-12T00:04:33;39.33;;;22.57;;
19221;SDS011;9745;50.828;4.378;2023-09-12T00:06:59;36.27;;;21.93;;
19221;SDS011;9745;50.828;4.378;2023-09-12T00:09:33;32.87;;;21.47;;
19221;SDS011;9745;50.828;4.378;2023-09-12T00:12:02;36.80;;;22.73;;
19221;SDS011;9745;50.828;4.378;2023-09-12T00:14:28;33.93;;;22.67;;
19221;SDS011;9745;50.828;4.378;2023-09-12T00:16:54;34.83;;;21.80;;
19221;SDS011;9745;50.828;4.378;2023-09-12T00:19:20;38.70;;;23.57;;
19221;SDS011;9745;50.828;4.378;2023-09-12T00:21:47;35.30;;;21.33;;
19221;SDS011;9745;50.828;4.378;2023-09-12T00:24:13;37.50;;;23.07;;
19221;SDS011;9745;50.828;4.378;2023-09-12T00:26:39;38.07;;;23.93;;
19221;SDS011;9745;50.828;4.378;2023-09-12T00:29:05;37.17;;;24.77;;
19221;SDS011;9745;50.828;4.378;2023-09-12T00:31:31;35.03;;;23.70;;
19221;SDS011;9745;50.828;4.378;2023-09-12T00:33:57;34.90;;;20.70;;
19221;SDS011;9745;50.828;4.378;2023-09-12T00:36:23;29.93;;;17.33;;
19221;SDS011;9745;50.828;4.378;2023-09-12T00:38:52;36.03;;;17.37;;
19221;SDS011;9745;50.828;4.378;2023-09-12T00:41:20;27.07;;;17.03;;
19221;SDS011;9745;50.828;4.378;2023-09-12T00:43:51;26.33;;;16.67;;
19221;SDS011;9745;50.828;4.378;2023-09-12T00:46:18;23.67;;;15.10;;
19221;SDS011;9745;50.828;4.378;2023-09-12T00:48:44;23.27;;;14.37;;
19221;SDS011;9745;50.828;4.378;2023-09-12T00:51:11;22.87;;;14.27;;
19221;SDS011;9745;50.828;4.378;2023-09-12T00:53:39;19.70;;;14.23;;
19221;SDS011;9745;50.828;4.378;2023-09-12T00:56:05;22.37;;;13.73;;
19221;SDS011;9745;50.828;4.378;2023-09-12T00:58:32;20.87;;;13.93;;
19221;SDS011;9745;50.828;4.378;2023-09-12T01:00:58;18.97;;;12.57;;
19221;SDS011;9745;50.828;4.378;2023-09-12T01:03:24;23.13;;;14.33;;
19221;SDS011;9745;50.828;4.378;2023-09-12T01:05:52;22.10;;;13.70;;
19221;SDS011;9745;50.828;4.378;2023-09-12T01:08:19;18.77;;;14.37;;
19221;SDS011;9745;50.828;4.378;2023-09-12T01:10:47;22.87;;;14.27;;
19221;SDS011;9745;50.828;4.378;2023-09-12T01:13:15;23.63;;;15.50;;
19221;SDS011;9745;50.828;4.378;2023-09-12T01:15:42;23.63;;;16.10;;
19221;SDS011;9745;50.828;4.378;2023-09-12T01:18:09;25.23;;;16.93;;
19221;SDS011;9745;50.828;4.378;2023-09-12T01:20:36;25.60;;;17.10;;
19221;SDS011;9745;50.828;4.378;2023-09-12T01:23:17;27.63;;;17.00;;
19221;SDS011;9745;50.828;4.378;2023-09-12T01:25:58;23.53;;;15.93;;
19221;SDS011;9745;50.828;4.378;2023-09-12T01:28:28;24.77;;;15.87;;
19221;SDS011;9745;50.828;4.378;2023-09-12T01:30:56;23.30;;;15.70;;
19221;SDS011;9745;50.828;4.378;2023-09-12T01:33:24;22.50;;;14.30;;
19221;SDS011;9745;50.828;4.378;2023-09-12T01:35:50;27.40;;;16.03;;
19221;SDS011;9745;50.828;4.378;2023-09-12T01:38:16;23.47;;;14.03;;
19221;SDS011;9745;50.828;4.378;2023-09-12T01:40:48;23.80;;;15.10;;
19221;SDS011;9745;50.828;4.378;2023-09-12T01:43:15;24.00;;;14.73;;
19221;SDS011;9745;50.828;4.378;2023-09-12T01:45:42;24.17;;;14.87;;
19221;SDS011;9745;50.828;4.378;2023-09-12T01:48:12;23.83;;;14.00;;
19221;SDS011;9745;50.828;4.378;2023-09-12T01:50:39;23.23;;;14.00;;
19221;SDS011;9745;50.828;4.378;2023-09-12T01:53:05;31.63;;;15.50;;
19221;SDS011;9745;50.828;4.378;2023-09-12T01:55:34;27.13;;;17.03;;
19221;SDS011;9745;50.828;4.378;2023-09-12T01:58:01;27.53;;;15.63;;
19221;SDS011;9745;50.828;4.378;2023-09-12T02:00:28;29.43;;;18.63;;
19221;SDS011;9745;50.828;4.378;2023-09-12T02:02:56;28.43;;;18.43;;
19221;SDS011;9745;50.828;4.378;2023-09-12T02:05:28;30.00;;;18.13;;
19221;SDS011;9745;50.828;4.378;2023-09-12T02:07:55;31.33;;;20.83;;
19221;SDS011;9745;50.828;4.378;2023-09-12T02:10:21;35.57;;;21.27;;
19221;SDS011;9745;50.828;4.378;2023-09-12T02:12:47;37.40;;;22.73;;
19221;SDS011;9745;50.828;4.378;2023-09-12T02:15:15;38.47;;;23.70;;
19221;SDS011;9745;50.828;4.378;2023-09-12T02:17:41;40.13;;;25.70;;
19221;SDS011;9745;50.828;4.378;2023-09-12T02:20:08;38.70;;;23.73;;
19221;SDS011;9745;50.828;4.378;2023-09-12T02:22:37;41.27;;;24.27;;
19221;SDS011;9745;50.828;4.378;2023-09-12T02:25:03;37.03;;;24.47;;
19221;SDS011;9745;50.828;4.378;2023-09-12T02:27:30;39.00;;;23.23;;
19221;SDS011;9745;50.828;4.378;2023-09-12T02:29:56;45.77;;;26.73;;
19221;SDS011;9745;50.828;4.378;2023-09-12T02:32:22;47.23;;;28.43;;
19221;SDS011;9745;50.828;4.378;2023-09-12T02:34:48;45.80;;;28.50;;
19221;SDS011;9745;50.828;4.378;2023-09-12T02:37:14;47.40;;;28.97;;
19221;SDS011;9745;50.828;4.378;2023-09-12T02:39:41;51.73;;;30.77;;
19221;SDS011;9745;50.828;4.378;2023-09-12T02:42:07;57.60;;;30.57;;
19221;SDS011;9745;50.828;4.378;2023-09-12T02:44:33;54.93;;;31.87;;
19221;SDS011;9745;50.828;4.378;2023-09-12T02:46:59;44.20;;;27.80;;
19221;SDS011;9745;50.828;4.378;2023-09-12T02:49:25;45.70;;;28.07;;
19221;SDS011;9745;50.828;4.378;2023-09-12T02:51:51;48.60;;;28.77;;
19221;SDS011;9745;50.828;4.378;2023-09-12T02:54:17;48.03;;;27.27;;
19221;SDS011;9745;50.828;4.378;2023-09-12T02:56:43;49.03;;;27.97;;
19221;SDS011;9745;50.828;4.378;2023-09-12T02:59:09;40.60;;;24.87;;
19221;SDS011;9745;50.828;4.378;2023-09-12T03:01:35;37.83;;;25.40;;
19221;SDS011;9745;50.828;4.378;2023-09-12T03:04:02;38.50;;;25.13;;
19221;SDS011;9745;50.828;4.378;2023-09-12T03:06:28;38.40;;;25.03;;
19221;SDS011;9745;50.828;4.378;2023-09-12T03:08:55;44.63;;;25.00;;
19221;SDS011;9745;50.828;4.378;2023-09-12T03:11:22;44.77;;;27.00;;
19221;SDS011;9745;50.828;4.378;2023-09-12T03:13:50;44.63;;;26.67;;
19221;SDS011;9745;50.828;4.378;2023-09-12T03:16:19;49.77;;;28.03;;
19221;SDS011;9745;50.828;4.378;2023-09-12T03:18:45;47.93;;;28.07;;
19221;SDS011;9745;50.828;4.378;2023-09-12T03:21:15;43.97;;;28.43;;
19221;SDS011;9745;50.828;4.378;2023-09-12T03:23:41;42.60;;;25.40;;
19221;SDS011;9745;50.828;4.378;2023-09-12T03:26:07;42.90;;;26.53;;
19221;SDS011;9745;50.828;4.378;2023-09-12T03:28:33;41.47;;;24.00;;
19221;SDS011;9745;50.828;4.378;2023-09-12T03:31:09;40.07;;;24.57;;
19221;SDS011;9745;50.828;4.378;2023-09-12T03:33:38;46.67;;;26.80;;
19221;SDS011;9745;50.828;4.378;2023-09-12T03:36:07;47.13;;;27.90;;
19221;SDS011;9745;50.828;4.378;2023-09-12T03:38:36;50.13;;;27.87;;
19221;SDS011;9745;50.828;4.378;2023-09-12T03:41:02;37.53;;;25.03;;
19221;SDS011;9745;50.828;4.378;2023-09-12T03:43:32;39.23;;;22.27;;
19221;SDS011;9745;50.828;4.378;2023-09-12T03:45:58;35.47;;;21.37;;
19221;SDS011;9745;50.828;4.378;2023-09-12T03:48:26;40.13;;;22.67;;
19221;SDS011;9745;50.828;4.378;2023-09-12T03:50:55;36.90;;;22.03;;
19221;SDS011;9745;50.828;4.378;2023-09-12T03:53:21;36.20;;;20.97;;
19221;SDS011;9745;50.828;4.378;2023-09-12T03:55:53;38.93;;;23.00;;
19221;SDS011;9745;50.828;4.378;2023-09-12T03:58:19;36.03;;;21.73;;
19221;SDS011;9745;50.828;4.378;2023-09-12T04:00:54;33.30;;;20.80;;
19221;SDS011;9745;50.828;4.378;2023-09-12T04:03:21;36.87;;;21.07;;
19221;SDS011;9745;50.828;4.378;2023-09-12T04:05:47;41.60;;;24.83;;
19221;SDS011;9745;50.828;4.378;2023-09-12T04:08:13;37.80;;;23.60;;
19221;SDS011;9745;50.828;4.378;2023-09-12T04:10:49;44.43;;;24.73;;
19221;SDS011;9745;50.828;4.378;2023-09-12T04:13:15;40.63;;;24.47;;
19221;SDS011;9745;50.828;4.378;2023-09-12T04:15:44;41.83;;;22.80;;
19221;SDS011;9745;50.828;4.378;2023-09-12T04:18:10;41.80;;;24.50;;
19221;SDS011;9745;50.828;4.378;2023-09-12T04:20:36;46.20;;;25.37;;
19221;SDS011;9745;50.828;4.378;2023-09-12T04:23:10;44.30;;;25.70;;
19221;SDS011;9745;50.828;4.378;2023-09-12T04:25:41;41.50;;;24.07;;
19221;SDS011;9745;50.828;4.378;2023-09-12T04:28:08;42.67;;;24.90;;
19221;SDS011;9745;50.828;4.378;2023-09-12T04:30:36;48.90;;;26.57;;
19221;SDS011;9745;50.828;4.378;2023-09-12T04:33:07;47.97;;;26.97;;
19221;SDS011;9745;50.828;4.378;2023-09-12T04:35:34;45.10;;;26.23;;
19221;SDS011;9745;50.828;4.378;2023-09-12T04:38:00;42.90;;;25.60;;
19221;SDS011;9745;50.828;4.378;2023-09-12T04:40:31;47.10;;;27.27;;
19221;SDS011;9745;50.828;4.378;2023-09-12T04:43:02;43.80;;;25.70;;
19221;SDS011;9745;50.828;4.378;2023-09-12T04:45:34;44.47;;;26.47;;
19221;SDS011;9745;50.828;4.378;2023-09-12T04:48:00;40.80;;;23.83;;
19221;SDS011;9745;50.828;4.378;2023-09-12T04:50:30;41.70;;;24.57;;
19221;SDS011;9745;50.828;4.378;2023-09-12T04:52:56;41.47;;;23.07;;
19221;SDS011;9745;50.828;4.378;2023-09-12T04:55:22;39.70;;;22.30;;
19221;SDS011;9745;50.828;4.378;2023-09-12T04:57:48;41.20;;;23.50;;
19221;SDS011;9745;50.828;4.378;2023-09-12T05:00:14;40.20;;;22.67;;
19221;SDS011;9745;50.828;4.378;2023-09-12T05:02:41;41.93;;;24.00;;
19221;SDS011;9745;50.828;4.378;2023-09-12T05:05:09;49.10;;;25.60;;
19221;SDS011;9745;50.828;4.378;2023-09-12T05:07:41;43.80;;;24.87;;
19221;SDS011;9745;50.828;4.378;2023-09-12T05:10:07;41.00;;;24.43;;
19221;SDS011;9745;50.828;4.378;2023-09-12T05:12:35;44.93;;;25.23;;
19221;SDS011;9745;50.828;4.378;2023-09-12T05:15:01;41.53;;;24.23;;
19221;SDS011;9745;50.828;4.378;2023-09-12T05:17:28;42.83;;;23.57;;
19221;SDS011;9745;50.828;4.378;2023-09-12T05:19:54;39.10;;;23.10;;
19221;SDS011;9745;50.828;4.378;2023-09-12T05:22:20;38.30;;;21.03;;
19221;SDS011;9745;50.828;4.378;2023-09-12T05:24:46;22.97;;;15.07;;
19221;SDS011;9745;50.828;4.378;2023-09-12T05:27:13;23.83;;;14.70;;
19221;SDS011;9745;50.828;4.378;2023-09-12T05:29:39;22.10;;;12.97;;
19221;SDS011;9745;50.828;4.378;2023-09-12T05:32:05;24.57;;;14.07;;
19221;SDS011;9745;50.828;4.378;2023-09-12T05:34:31;28.37;;;14.77;;
19221;SDS011;9745;50.828;4.378;2023-09-12T05:36:57;24.00;;;15.03;;
19221;SDS011;9745;50.828;4.378;2023-09-12T05:39:23;23.77;;;15.37;;
19221;SDS011;9745;50.828;4.378;2023-09-12T05:41:49;24.33;;;15.63;;
19221;SDS011;9745;50.828;4.378;2023-09-12T05:44:17;22.27;;;14.77;;
19221;SDS011;9745;50.828;4.378;2023-09-12T05:46:47;24.57;;;15.90;;
19221;SDS011;9745;50.828;4.378;2023-09-12T05:49:16;28.33;;;16.87;;
19221;SDS011;9745;50.828;4.378;2023-09-12T05:51:42;28.23;;;17.80;;
19221;SDS011;9745;50.828;4.378;2023-09-12T05:54:08;31.23;;;17.87;;
19221;SDS011;9745;50.828;4.378;2023-09-12T05:56:36;25.37;;;16.63;;
19221;SDS011;9745;50.828;4.378;2023-09-12T05:59:02;25.57;;;17.23;;
19221;SDS011;9745;50.828;4.378;2023-09-12T06:01:28;25.67;;;17.10;;
19221;SDS011;9745;50.828;4.378;2023-09-12T06:04:03;26.20;;;17.03;;
19221;SDS011;9745;50.828;4.378;2023-09-12T06:06:32;27.17;;;17.50;;
19221;SDS011;9745;50.828;4.378;2023-09-12T06:08:58;28.37;;;18.23;;
19221;SDS011;9745;50.828;4.378;2023-09-12T06:11:24;27.83;;;17.33;;
19221;SDS011;9745;50.828;4.378;2023-09-12T06:13:50;25.87;;;16.43;;
19221;SDS011;9745;50.828;4.378;2023-09-12T06:16:17;29.53;;;17.17;;
19221;SDS011;9745;50.828;4.378;2023-09-12T06:18:43;25.23;;;16.13;;
19221;SDS011;9745;50.828;4.378;2023-09-12T06:21:09;30.63;;;17.90;;
19221;SDS011;9745;50.828;4.378;2023-09-12T06:23:35;30.27;;;18.63;;
19221;SDS011;9745;50.828;4.378;2023-09-12T06:26:01;28.40;;;17.20;;
19221;SDS011;9745;50.828;4.378;2023-09-12T06:28:31;31.33;;;17.03;;
19221;SDS011;9745;50.828;4.378;2023-09-12T06:30:57;29.27;;;17.07;;
19221;SDS011;9745;50.828;4.378;2023-09-12T06:33:26;29.70;;;18.47;;
19221;SDS011;9745;50.828;4.378;2023-09-12T06:35:53;33.37;;;16.97;;
19221;SDS011;9745;50.828;4.378;2023-09-12T06:38:22;29.43;;;16.90;;
19221;SDS011;9745;50.828;4.378;2023-09-12T06:40:49;27.17;;;17.83;;
19221;SDS011;9745;50.828;4.378;2023-09-12T06:43:24;39.17;;;18.40;;
19221;SDS011;9745;50.828;4.378;2023-09-12T06:45:53;27.90;;;18.03;;
19221;SDS011;9745;50.828;4.378;2023-09-12T06:48:19;26.37;;;17.17;;
19221;SDS011;9745;50.828;4.378;2023-09-12T06:50:45;26.73;;;16.63;;
19221;SDS011;9745;50.828;4.378;2023-09-12T06:53:11;32.37;;;17.10;;
19221;SDS011;9745;50.828;4.378;2023-09-12T06:55:37;28.77;;;17.53;;
19221;SDS011;9745;50.828;4.378;2023-09-12T06:58:06;29.20;;;16.57;;
19221;SDS011;9745;50.828;4.378;2023-09-12T07:00:33;23.67;;;15.67;;
19221;SDS011;9745;50.828;4.378;2023-09-12T07:03:01;26.70;;;16.27;;
19221;SDS011;9745;50.828;4.378;2023-09-12T07:05:27;25.40;;;16.50;;
19221;SDS011;9745;50.828;4.378;2023-09-12T07:07:56;31.20;;;17.77;;
19221;SDS011;9745;50.828;4.378;2023-09-12T07:10:22;26.77;;;16.70;;
19221;SDS011;9745;50.828;4.378;2023-09-12T07:12:52;29.07;;;16.27;;
19221;SDS011;9745;50.828;4.378;2023-09-12T07:18:07;22.90;;;16.00;;
19221;SDS011;9745;50.828;4.378;2023-09-12T07:20:34;28.53;;;15.57;;
19221;SDS011;9745;50.828;4.378;2023-09-12T07:23:00;23.40;;;15.00;;
19221;SDS011;9745;50.828;4.378;2023-09-12T07:25:26;24.17;;;14.67;;
19221;SDS011;9745;50.828;4.378;2023-09-12T07:27:52;24.67;;;15.23;;
19221;SDS011;9745;50.828;4.378;2023-09-12T07:30:18;30.67;;;14.87;;
19221;SDS011;9745;50.828;4.378;2023-09-12T07:32:46;24.70;;;14.03;;
19221;SDS011;9745;50.828;4.378;2023-09-12T07:35:13;22.37;;;13.60;;
19221;SDS011;9745;50.828;4.378;2023-09-12T07:37:39;20.73;;;13.33;;
19221;SDS011;9745;50.828;4.378;2023-09-12T07:40:10;23.40;;;13.43;;
19221;SDS011;9745;50.828;4.378;2023-09-12T07:42:36;28.23;;;13.57;;
19221;SDS011;9745;50.828;4.378;2023-09-12T07:45:02;22.80;;;13.60;;
19221;SDS011;9745;50.828;4.378;2023-09-12T07:47:28;22.00;;;12.40;;
19221;SDS011;9745;50.828;4.378;2023-09-12T07:49:54;22.23;;;13.33;;
19221;SDS011;9745;50.828;4.378;2023-09-12T07:52:21;21.17;;;12.27;;
19221;SDS011;9745;50.828;4.378;2023-09-12T07:54:48;20.57;;;12.97;;
19221;SDS011;9745;50.828;4.378;2023-09-12T07:57:17;20.67;;;13.73;;
19221;SDS011;9745;50.828;4.378;2023-09-12T07:59:43;20.43;;;12.77;;
19221;SDS011;9745;50.828;4.378;2023-09-12T08:02:09;20.27;;;13.60;;
19221;SDS011;9745;50.828;4.378;2023-09-12T08:04:37;21.77;;;13.97;;
19221;SDS011;9745;50.828;4.378;2023-09-12T08:07:04;22.87;;;14.70;;
19221;SDS011;9745;50.828;4.378;2023-09-12T08:09:47;23.90;;;14.23;;
19221;SDS011;9745;50.828;4.378;2023-09-12T08:12:21;20.53;;;13.57;;
19221;SDS011;9745;50.828;4.378;2023-09-12T08:14:47;23.67;;;13.60;;
19221;SDS011;9745;50.828;4.378;2023-09-12T08:17:14;23.10;;;15.00;;
19221;SDS011;9745;50.828;4.378;2023-09-12T08:19:42;22.57;;;15.00;;
19221;SDS011;9745;50.828;4.378;2023-09-12T08:22:09;23.60;;;14.77;;
19221;SDS011;9745;50.828;4.378;2023-09-12T08:24:36;28.47;;;14.87;;
19221;SDS011;9745;50.828;4.378;2023-09-12T08:27:02;29.07;;;16.63;;
19221;SDS011;9745;50.828;4.378;2023-09-12T08:29:29;28.80;;;16.93;;
19221;SDS011;9745;50.828;4.378;2023-09-12T08:31:57;27.27;;;15.87;;
19221;SDS011;9745;50.828;4.378;2023-09-12T08:34:24;27.00;;;16.33;;
19221;SDS011;9745;50.828;4.378;2023-09-12T08:36:50;25.80;;;16.17;;
19221;SDS011;9745;50.828;4.378;2023-09-12T08:39:26;26.03;;;16.13;;
19221;SDS011;9745;50.828;4.378;2023-09-12T08:41:54;29.17;;;16.40;;
19221;SDS011;9745;50.828;4.378;2023-09-12T08:44:21;25.13;;;16.63;;
19221;SDS011;9745;50.828;4.378;2023-09-12T08:46:47;28.50;;;16.17;;
19221;SDS011;9745;50.828;4.378;2023-09-12T08:49:13;28.73;;;16.73;;
19221;SDS011;9745;50.828;4.378;2023-09-12T08:51:40;26.77;;;17.20;;
19221;SDS011;9745;50.828;4.378;2023-09-12T08:54:07;27.50;;;16.20;;
19221;SDS011;9745;50.828;4.378;2023-09-12T08:56:34;26.13;;;14.17;;
19221;SDS011;9745;50.828;4.378;2023-09-12T08:59:01;23.77;;;14.17;;
19221;SDS011;9745;50.828;4.378;2023-09-12T09:01:29;28.87;;;15.03;;
19221;SDS011;9745;50.828;4.378;2023-09-12T09:03:55;29.27;;;14.00;;
19221;SDS011;9745;50.828;4.378;2023-09-12T09:06:23;25.40;;;14.33;;
19221;SDS011;9745;50.828;4.378;2023-09-12T09:08:49;24.80;;;14.77;;
19221;SDS011;9745;50.828;4.378;2023-09-12T09:11:18;22.40;;;12.13;;
19221;SDS011;9745;50.828;4.378;2023-09-12T09:13:44;18.53;;;12.53;;
19221;SDS011;9745;50.828;4.378;2023-09-12T09:16:16;17.87;;;11.10;;
19221;SDS011;9745;50.828;4.378;2023-09-12T09:21:36;20.33;;;10.50;;
19221;SDS011;9745;50.828;4.378;2023-09-12T09:24:13;27.93;;;12.90;;
19221;SDS011;9745;50.828;4.378;2023-09-12T09:26:43;22.23;;;12.17;;
19221;SDS011;9745;50.828;4.378;2023-09-12T09:29:10;22.23;;;12.50;;
19221;SDS011;9745;50.828;4.378;2023-09-12T09:31:42;18.97;;;10.77;;
19221;SDS011;9745;50.828;4.378;2023-09-12T09:34:15;18.20;;;10.20;;
19221;SDS011;9745;50.828;4.378;2023-09-12T09:36:42;18.93;;;9.77;;
19221;SDS011;9745;50.828;4.378;2023-09-12T09:39:08;21.20;;;10.90;;
19221;SDS011;9745;50.828;4.378;2023-09-12T09:41:37;20.33;;;12.23;;
19221;SDS011;9745;50.828;4.378;2023-09-12T09:44:04;21.67;;;11.53;;
19221;SDS011;9745;50.828;4.378;2023-09-12T09:46:31;23.27;;;11.80;;
19221;SDS011;9745;50.828;4.378;2023-09-12T09:48:58;20.97;;;10.77;;
19221;SDS011;9745;50.828;4.378;2023-09-12T09:51:25;19.53;;;10.60;;
19221;SDS011;9745;50.828;4.378;2023-09-12T09:53:51;16.80;;;10.10;;
19221;SDS011;9745;50.828;4.378;2023-09-12T09:56:18;18.77;;;11.07;;
19221;SDS011;9745;50.828;4.378;2023-09-12T10:01:14;17.53;;;11.20;;
19221;SDS011;9745;50.828;4.378;2023-09-12T10:03:44;17.17;;;10.63;;
19221;SDS011;9745;50.828;4.378;2023-09-12T10:06:15;15.97;;;10.17;;
19221;SDS011;9745;50.828;4.378;2023-09-12T10:08:43;17.63;;;10.27;;
19221;SDS011;9745;50.828;4.378;2023-09-12T10:11:19;15.47;;;9.60;;
19221;SDS011;9745;50.828;4.378;2023-09-12T10:13:49;23.17;;;11.53;;
19221;SDS011;9745;50.828;4.378;2023-09-12T10:16:15;19.80;;;12.30;;
19221;SDS011;9745;50.828;4.378;2023-09-12T10:18:45;19.07;;;10.23;;
19221;SDS011;9745;50.828;4.378;2023-09-12T10:21:14;16.67;;;10.77;;
19221;SDS011;9745;50.828;4.378;2023-09-12T10:23:44;20.50;;;11.17;;
19221;SDS011;9745;50.828;4.378;2023-09-12T10:26:11;21.33;;;11.67;;
19221;SDS011;9745;50.828;4.378;2023-09-12T10:28:40;18.10;;;10.80;;
19221;SDS011;9745;50.828;4.378;2023-09-12T10:31:11;15.53;;;9.77;;
19221;SDS011;9745;50.828;4.378;2023-09-12T10:33:39;12.23;;;8.50;;
19221;SDS011;9745;50.828;4.378;2023-09-12T10:36:06;15.07;;;9.27;;
19221;SDS011;9745;50.828;4.378;2023-09-12T10:38:45;12.03;;;8.27;;
19221;SDS011;9745;50.828;4.378;2023-09-12T10:41:13;13.07;;;7.40;;
19221;SDS011;9745;50.828;4.378;2023-09-12T10:43:39;9.47;;;7.27;;
19221;SDS011;9745;50.828;4.378;2023-09-12T10:46:12;11.87;;;8.47;;
19221;SDS011;9745;50.828;4.378;2023-09-12T10:48:49;11.33;;;7.40;;
19221;SDS011;9745;50.828;4.378;2023-09-12T10:51:16;13.40;;;5.90;;
19221;SDS011;9745;50.828;4.378;2023-09-12T10:53:49;9.57;;;6.30;;
19221;SDS011;9745;50.828;4.378;2023-09-12T10:56:17;10.10;;;6.57;;
19221;SDS011;9745;50.828;4.378;2023-09-12T11:01:34;8.20;;;5.60;;
19221;SDS011;9745;50.828;4.378;2023-09-12T11:06:52;7.50;;;5.40;;
19221;SDS011;9745;50.828;4.378;2023-09-12T11:11:45;11.10;;;5.43;;
19221;SDS011;9745;50.828;4.378;2023-09-12T11:14:12;8.37;;;5.13;;
19221;SDS011;9745;50.828;4.378;2023-09-12T11:16:38;6.37;;;4.67;;
19221;SDS011;9745;50.828;4.378;2023-09-12T11:19:17;7.83;;;4.57;;
19221;SDS011;9745;50.828;4.378;2023-09-12T11:21:53;7.17;;;4.63;;
19221;SDS011;9745;50.828;4.378;2023-09-12T11:24:21;4.77;;;3.70;;
19221;SDS011;9745;50.828;4.378;2023-09-12T11:29:22;12.30;;;5.07;;
19221;SDS011;9745;50.828;4.378;2023-09-12T11:31:54;5.37;;;3.83;;
19221;SDS011;9745;50.828;4.378;2023-09-12T11:34:26;9.60;;;4.93;;
19221;SDS011;9745;50.828;4.378;2023-09-12T11:36:58;11.93;;;4.83;;
19221;SDS011;9745;50.828;4.378;2023-09-12T11:39:30;7.07;;;5.07;;
19221;SDS011;9745;50.828;4.378;2023-09-12T11:41:57;6.70;;;5.43;;
19221;SDS011;9745;50.828;4.378;2023-09-12T11:44:23;7.07;;;4.40;;
19221;SDS011;9745;50.828;4.378;2023-09-12T11:46:51;8.90;;;4.60;;
19221;SDS011;9745;50.828;4.378;2023-09-12T11:49:20;7.30;;;5.30;;
19221;SDS011;9745;50.828;4.378;2023-09-12T11:51:52;8.23;;;4.27;;
19221;SDS011;9745;50.828;4.378;2023-09-12T11:54:25;6.73;;;4.40;;
19221;SDS011;9745;50.828;4.378;2023-09-12T11:56:54;6.43;;;4.07;;
19221;SDS011;9745;50.828;4.378;2023-09-12T11:59:24;8.40;;;4.73;;
19221;SDS011;9745;50.828;4.378;2023-09-12T12:01:51;10.20;;;4.80;;
19221;SDS011;9745;50.828;4.378;2023-09-12T12:04:34;5.23;;;4.13;;
19221;SDS011;9745;50.828;4.378;2023-09-12T12:07:03;11.23;;;4.37;;
19221;SDS011;9745;50.828;4.378;2023-09-12T12:09:32;5.70;;;4.50;;
19221;SDS011;9745;50.828;4.378;2023-09-12T12:12:09;9.37;;;5.00;;
19221;SDS011;9745;50.828;4.378;2023-09-12T12:14:35;7.37;;;4.73;;
19221;SDS011;9745;50.828;4.378;2023-09-12T12:17:05;7.43;;;5.17;;
19221;SDS011;9745;50.828;4.378;2023-09-12T12:19:32;10.83;;;5.53;;
19221;SDS011;9745;50.828;4.378;2023-09-12T12:21:58;9.27;;;5.10;;
19221;SDS011;9745;50.828;4.378;2023-09-12T12:24:35;6.03;;;4.70;;
19221;SDS011;9745;50.828;4.378;2023-09-12T12:27:04;6.60;;;4.20;;
19221;SDS011;9745;50.828;4.378;2023-09-12T12:29:30;5.90;;;4.00;;
19221;SDS011;9745;50.828;4.378;2023-09-12T12:32:01;6.57;;;4.50;;
19221;SDS011;9745;50.828;4.378;2023-09-12T12:34:30;7.20;;;4.80;;
19221;SDS011;9745;50.828;4.378;2023-09-12T12:36:56;11.73;;;4.77;;
19221;SDS011;9745;50.828;4.378;2023-09-12T12:39:22;7.30;;;4.40;;
19221;SDS011;9745;50.828;4.378;2023-09-12T12:41:48;12.73;;;4.90;;
19221;SDS011;9745;50.828;4.378;2023-09-12T12:44:17;6.23;;;4.37;;
19221;SDS011;9745;50.828;4.378;2023-09-12T12:46:50;9.27;;;4.90;;
19221;SDS011;9745;50.828;4.378;2023-09-12T12:49:17;9.77;;;4.83;;
19221;SDS011;9745;50.828;4.378;2023-09-12T12:51:43;8.30;;;5.07;;
19221;SDS011;9745;50.828;4.378;2023-09-12T12:54:10;9.10;;;4.30;;
19221;SDS011;9745;50.828;4.378;2023-09-12T12:56:36;9.07;;;5.23;;
19221;SDS011;9745;50.828;4.378;2023-09-12T12:59:04;11.13;;;6.43;;
19221;SDS011;9745;50.828;4.378;2023-09-12T13:01:33;7.67;;;4.80;;
19221;SDS011;9745;50.828;4.378;2023-09-12T13:03:59;7.93;;;4.90;;
19221;SDS011;9745;50.828;4.378;2023-09-12T13:06:26;11.73;;;4.23;;
19221;SDS011;9745;50.828;4.378;2023-09-12T13:08:55;10.87;;;4.03;;
19221;SDS011;9745;50.828;4.378;2023-09-12T13:11:22;10.90;;;4.73;;
19221;SDS011;9745;50.828;4.378;2023-09-12T13:13:48;8.97;;;4.60;;
19221;SDS011;9745;50.828;4.378;2023-09-12T13:16:15;8.33;;;4.97;;
19221;SDS011;9745;50.828;4.378;2023-09-12T13:18:41;12.67;;;5.23;;
19221;SDS011;9745;50.828;4.378;2023-09-12T13:21:07;7.00;;;5.47;;
19221;SDS011;9745;50.828;4.378;2023-09-12T13:23:36;9.87;;;6.00;;
19221;SDS011;9745;50.828;4.378;2023-09-12T13:26:02;17.53;;;11.30;;
19221;SDS011;9745;50.828;4.378;2023-09-12T13:28:29;10.93;;;8.10;;
19221;SDS011;9745;50.828;4.378;2023-09-12T13:30:55;10.27;;;7.47;;
19221;SDS011;9745;50.828;4.378;2023-09-12T13:33:25;14.87;;;7.40;;
19221;SDS011;9745;50.828;4.378;2023-09-12T13:35:54;16.73;;;7.70;;
19221;SDS011;9745;50.828;4.378;2023-09-12T13:38:22;11.60;;;7.50;;
19221;SDS011;9745;50.828;4.378;2023-09-12T13:40:49;12.17;;;7.00;;
19221;SDS011;9745;50.828;4.378;2023-09-12T13:43:15;15.80;;;10.03;;
19221;SDS011;9745;50.828;4.378;2023-09-12T13:45:41;11.13;;;6.93;;
19221;SDS011;9745;50.828;4.378;2023-09-12T13:48:07;11.33;;;6.67;;
19221;SDS011;9745;50.828;4.378;2023-09-12T13:50:33;11.43;;;7.70;;
19221;SDS011;9745;50.828;4.378;2023-09-12T13:53:00;8.83;;;6.67;;
19221;SDS011;9745;50.828;4.378;2023-09-12T13:55:31;13.77;;;6.50;;
19221;SDS011;9745;50.828;4.378;2023-09-12T13:57:57;6.50;;;5.13;;
19221;SDS011;9745;50.828;4.378;2023-09-12T14:00:25;11.83;;;6.60;;
19221;SDS011;9745;50.828;4.378;2023-09-12T14:02:51;8.57;;;6.17;;
19221;SDS011;9745;50.828;4.378;2023-09-12T14:05:18;8.73;;;6.10;;
19221;SDS011;9745;50.828;4.378;2023-09-12T14:07:44;9.80;;;5.83;;
19221;SDS011;9745;50.828;4.378;2023-09-12T14:10:10;12.27;;;7.03;;
19221;SDS011;9745;50.828;4.378;2023-09-12T14:12:39;12.90;;;7.50;;
19221;SDS011;9745;50.828;4.378;2023-09-12T14:15:09;10.37;;;7.60;;
19221;SDS011;9745;50.828;4.378;2023-09-12T14:17:35;11.63;;;7.07;;
19221;SDS011;9745;50.828;4.378;2023-09-12T14:20:01;9.97;;;7.67;;
19221;SDS011;9745;50.828;4.378;2023-09-12T14:22:30;11.07;;;7.50;;
19221;SDS011;9745;50.828;4.378;2023-09-12T14:24:56;14.70;;;8.47;;
19221;SDS011;9745;50.828;4.378;2023-09-12T14:27:22;9.50;;;7.63;;
19221;SDS011;9745;50.828;4.378;2023-09-12T14:29:48;17.07;;;7.20;;
19221;SDS011;9745;50.828;4.378;2023-09-12T14:32:15;10.53;;;7.33;;
19221;SDS011;9745;50.828;4.378;2023-09-12T14:34:42;13.90;;;8.00;;
19221;SDS011;9745;50.828;4.378;2023-09-12T14:37:11;11.23;;;7.43;;
19221;SDS011;9745;50.828;4.378;2023-09-12T14:39:37;11.47;;;7.07;;
19221;SDS011;9745;50.828;4.378;2023-09-12T14:42:03;10.03;;;7.13;;
19221;SDS011;9745;50.828;4.378;2023-09-12T14:44:37;11.90;;;8.17;;
19221;SDS011;9745;50.828;4.378;2023-09-12T14:47:03;14.13;;;7.60;;
19221;SDS011;9745;50.828;4.378;2023-09-12T14:49:29;11.83;;;7.30;;
19221;SDS011;9745;50.828;4.378;2023-09-12T14:52:01;10.53;;;7.33;;
19221;SDS011;9745;50.828;4.378;2023-09-12T14:54:27;10.80;;;6.90;;
19221;SDS011;9745;50.828;4.378;2023-09-12T14:57:16;11.83;;;7.10;;
19221;SDS011;9745;50.828;4.378;2023-09-12T14:59:45;15.23;;;7.30;;
19221;SDS011;9745;50.828;4.378;2023-09-12T15:02:14;14.90;;;7.03;;
19221;SDS011;9745;50.828;4.378;2023-09-12T15:04:40;11.03;;;6.80;;